Time;durP1;ratioP1;P1;durP2;ratioP2;P2;SDS_P1;SDS_P2;PMS_P1;PMS_P2;Temp;Humidity;BMP_temperature;BMP_pressure;BME280_temperature;BME280_humidity;BME280_pressure;Samples;Min_cycle;Max_cycle;Signal;HPM_P1;HPM_P2
2022/04/15 00:01:21;;;;;;;8.17;3.13;;;;;;;37.12;44.29;100876.88;6157938;23;20384;-71
2022/04/15 00:03:48;;;;;;;11.00;3.50;;;;;;;37.26;44.07;100871.47;6184010;23;20431;-71
2022/04/15 00:06:15;;;;;;;16.27;6.27;;;;;;;37.23;43.60;100875.59;6184655;23;20388;-73
2022/04/15 00:08:41;;;;;;;16.53;4.90;;;;;;;37.07;43.57;100872.34;6157837;23;20424;-72
2022/04/15 00:11:07;;;;;;;8.33;3.90;;;;;;;37.00;43.13;100871.97;6157517;23;20385;-71
2022/04/15 00:13:35;;;;;;;11.50;3.90;;;;;;;37.25;43.14;100869.88;6157791;23;20844;-71
2022/04/15 00:16:06;;;;;;;10.30;3.50;;;;;;;37.11;43.27;100867.97;6157380;23;21031;-70
2022/04/15 00:18:33;;;;;;;9.87;4.00;;;;;;;37.13;43.18;100865.75;6158947;23;20364;-71
2022/04/15 00:21:00;;;;;;;9.63;3.10;;;;;;;37.33;42.78;100852.94;6133299;23;20384;-71
2022/04/15 00:23:26;;;;;;;18.73;4.97;;;;;;;37.44;43.33;100859.75;6157577;23;20544;-73
2022/04/15 00:25:53;;;;;;;13.40;4.83;;;;;;;37.33;43.38;100853.75;6157718;23;20408;-71
2022/04/15 00:28:20;;;;;;;10.43;4.57;;;;;;;37.26;44.14;100855.22;6184017;23;20376;-71
2022/04/15 00:30:47;;;;;;;14.57;4.20;;;;;;;37.22;43.55;100854.25;6133363;23;20388;-71
2022/04/15 00:33:13;;;;;;;10.67;5.30;;;;;;;37.32;43.92;100841.31;6157733;23;20777;-70
2022/04/15 00:35:39;;;;;;;17.93;4.90;;;;;;;37.35;44.14;100838.03;6157633;23;20928;-74
2022/04/15 00:38:06;;;;;;;10.03;3.87;;;;;;;37.33;44.35;100847.53;6184165;23;20357;-71
2022/04/15 00:40:32;;;;;;;9.47;4.30;;;;;;;37.39;43.80;100838.25;6157504;23;20398;-70
2022/04/15 00:42:58;;;;;;;11.13;4.43;;;;;;;37.46;44.30;100841.34;6184047;23;20363;-71
2022/04/15 00:45:24;;;;;;;9.80;3.70;;;;;;;37.44;43.70;100827.28;6157592;23;20388;-73
2022/04/15 00:47:53;;;;;;;9.07;4.43;;;;;;;37.40;43.73;100826.31;6157423;23;20385;-72
2022/04/15 00:50:21;;;;;;;10.47;3.70;;;;;;;37.44;44.11;100818.38;6157559;23;20494;-71
2022/04/15 00:52:49;;;;;;;19.00;5.20;;;;;;;37.50;43.92;100819.88;6157528;23;20399;-71
2022/04/15 00:55:17;;;;;;;15.57;5.33;;;;;;;37.62;43.91;100806.59;6157567;23;20418;-72
2022/04/15 00:58:00;;;;;;;9.53;4.20;;;;;;;37.33;44.28;100798.84;6157446;23;20440;-73
2022/04/15 01:00:29;;;;;;;18.50;4.60;;;;;;;37.45;44.23;100796.44;6184066;23;20353;-71
2022/04/15 01:03:03;;;;;;;11.93;4.97;;;;;;;37.33;44.63;100790.72;6157465;23;20388;-71
2022/04/15 01:05:29;;;;;;;8.33;4.00;;;;;;;37.10;45.08;100782.53;6157616;23;20388;-71
2022/04/15 01:07:57;;;;;;;23.33;4.87;;;;;;;37.11;44.79;100770.59;6157977;23;20384;-72
2022/04/15 01:10:24;;;;;;;10.23;4.10;;;;;;;37.12;45.47;100766.78;6157388;23;20427;-72
2022/04/15 01:12:56;;;;;;;25.50;4.80;;;;;;;37.20;45.30;100762.59;6184030;23;20375;-71
2022/04/15 01:15:27;;;;;;;15.10;6.80;;;;;;;37.33;44.68;100750.94;6152488;23;20591;-73
2022/04/15 01:17:54;;;;;;;13.50;5.90;;;;;;;37.30;44.66;100756.94;6129991;23;20401;-71
2022/04/15 01:20:21;;;;;;;10.80;4.17;;;;;;;37.17;44.87;100756.97;6156008;23;20358;-71
2022/04/15 01:22:50;;;;;;;14.27;4.37;;;;;;;37.15;44.90;100751.09;6105711;23;20796;-71
2022/04/15 01:25:18;;;;;;;15.07;5.60;;;;;;;37.31;44.73;100738.81;6105449;23;20773;-70
2022/04/15 01:27:46;;;;;;;14.67;5.23;;;;;;;37.21;44.28;100749.88;6129845;23;20405;-73
2022/04/15 01:30:16;;;;;;;13.53;4.33;;;;;;;37.00;44.31;100736.75;6129440;23;20515;-71
2022/04/15 01:32:43;;;;;;;10.67;4.60;;;;;;;36.89;44.74;100726.47;6129685;23;20799;-70
2022/04/15 01:35:11;;;;;;;16.03;5.27;;;;;;;36.69;44.67;100731.16;6105535;23;20729;-73
2022/04/15 01:37:38;;;;;;;14.60;4.00;;;;;;;36.90;44.67;100720.78;6129738;23;20381;-71
2022/04/15 01:40:06;;;;;;;14.57;4.00;;;;;;;36.97;45.24;100723.06;6105363;23;20384;-73
2022/04/15 01:42:34;;;;;;;11.40;5.43;;;;;;;37.09;45.24;100712.53;6104918;23;20392;-70
2022/04/15 01:45:00;;;;;;;19.87;5.70;;;;;;;36.91;45.28;100718.88;6081443;23;20380;-72
2022/04/15 01:47:27;;;;;;;7.60;3.37;;;;;;;36.78;45.01;100715.03;6129523;23;20477;-71
2022/04/15 01:49:53;;;;;;;18.33;4.57;;;;;;;36.84;45.13;100705.72;6081208;23;20950;-71
2022/04/15 01:52:19;;;;;;;15.53;5.70;;;;;;;36.93;45.24;100711.25;6155828;23;20884;-71
2022/04/15 01:54:46;;;;;;;10.37;4.00;;;;;;;36.88;44.53;100706.75;6129538;23;20452;-69
2022/04/15 01:57:13;;;;;;;11.53;3.73;;;;;;;36.70;43.94;100702.22;6129562;23;20384;-73
2022/04/15 01:59:40;;;;;;;16.60;7.53;;;;;;;36.94;43.14;100694.72;6129577;23;20440;-73
2022/04/15 02:02:06;;;;;;;8.53;3.37;;;;;;;36.88;44.55;100695.13;6129287;23;20909;-73
2022/04/15 02:04:33;;;;;;;9.63;4.63;;;;;;;36.92;44.79;100694.22;6129504;23;20728;-71
2022/04/15 02:06:59;;;;;;;10.30;3.83;;;;;;;37.00;44.80;100690.00;6155543;23;20373;-71
2022/04/15 02:09:26;;;;;;;10.37;3.90;;;;;;;36.97;44.74;100688.72;6155466;23;20779;-71
2022/04/15 02:11:52;;;;;;;9.50;3.97;;;;;;;36.87;45.35;100699.72;6155623;23;20365;-71
2022/04/15 02:14:19;;;;;;;11.97;6.60;;;;;;;36.88;45.38;100695.94;6133485;23;20444;-73
2022/04/15 02:16:46;;;;;;;12.27;4.47;;;;;;;36.74;44.86;100695.13;6158864;23;20384;-72
2022/04/15 02:19:13;;;;;;;11.93;5.03;;;;;;;36.97;44.63;100698.72;6158646;23;20892;-71
2022/04/15 02:21:39;;;;;;;10.87;4.20;;;;;;;36.66;44.76;100703.94;6158718;23;20391;-70
2022/04/15 02:24:06;;;;;;;18.43;4.17;;;;;;;36.79;44.61;100695.81;6158628;23;20436;-71
2022/04/15 02:26:33;;;;;;;16.63;6.33;;;;;;;36.72;44.92;100692.72;6158733;23;20380;-70
2022/04/15 02:29:00;;;;;;;13.47;5.63;;;;;;;36.88;45.07;100690.53;6158721;23;20769;-72
2022/04/15 02:31:26;;;;;;;13.00;4.40;;;;;;;36.83;44.99;100693.28;6158376;23;20447;-72
2022/04/15 02:33:52;;;;;;;17.43;5.60;;;;;;;37.05;44.10;100690.69;6185273;23;20389;-72
2022/04/15 02:36:18;;;;;;;14.80;4.23;;;;;;;37.14;43.43;100688.09;6185160;23;20364;-71
2022/04/15 02:38:45;;;;;;;10.20;4.20;;;;;;;37.21;43.65;100696.56;6158378;23;20404;-73
2022/04/15 02:41:11;;;;;;;9.33;4.50;;;;;;;37.02;44.04;100699.41;6158737;23;20384;-73
2022/04/15 02:43:39;;;;;;;8.43;3.30;;;;;;;37.27;43.18;100692.66;6158510;23;20864;-73
2022/04/15 02:46:07;;;;;;;18.30;4.63;;;;;;;37.18;44.21;100693.66;6184959;23;20361;-71
2022/04/15 02:48:34;;;;;;;10.97;4.47;;;;;;;37.21;43.56;100688.47;6158476;23;20471;-71
2022/04/15 02:51:01;;;;;;;18.00;4.57;;;;;;;36.95;44.13;100684.69;6158484;23;20392;-73
2022/04/15 02:53:28;;;;;;;17.53;4.40;;;;;;;36.90;44.17;100692.94;6158331;23;20384;-71
2022/04/15 02:55:54;;;;;;;11.40;4.93;;;;;;;36.87;44.61;100683.50;6134023;23;20392;-71
2022/04/15 02:58:20;;;;;;;9.10;3.67;;;;;;;37.06;43.86;100677.97;6158531;23;20450;-70
2022/04/15 03:00:47;;;;;;;10.87;5.97;;;;;;;37.09;43.79;100674.66;6158492;23;20408;-73
2022/04/15 03:03:13;;;;;;;17.53;4.80;;;;;;;37.01;44.15;100683.47;6158389;23;20442;-71
2022/04/15 03:05:39;;;;;;;10.17;3.47;;;;;;;36.90;44.33;100688.34;6158385;23;20864;-71
2022/04/15 03:08:06;;;;;;;10.60;4.67;;;;;;;36.84;44.99;100684.91;6158342;23;20390;-71
2022/04/15 03:10:32;;;;;;;9.40;3.50;;;;;;;36.86;44.16;100681.88;6158322;23;20474;-71
2022/04/15 03:12:59;;;;;;;23.80;5.30;;;;;;;36.87;44.42;100686.22;6158348;23;20388;-73
2022/04/15 03:15:25;;;;;;;15.37;4.50;;;;;;;36.98;44.19;100676.00;6157980;23;20450;-73
2022/04/15 03:17:51;;;;;;;11.67;3.13;;;;;;;36.69;44.89;100681.69;6184704;23;20377;-73
2022/04/15 03:20:17;;;;;;;11.20;3.20;;;;;;;36.86;44.14;100687.28;6158576;23;20349;-70
2022/04/15 03:22:44;;;;;;;10.57;3.90;;;;;;;37.00;44.07;100677.28;6158326;23;20377;-71
2022/04/15 03:25:12;;;;;;;10.33;3.60;;;;;;;36.89;43.58;100681.28;6158248;23;20384;-72
2022/04/15 03:27:39;;;;;;;9.83;2.93;;;;;;;37.02;44.09;100680.50;6158255;23;20449;-70
2022/04/15 03:30:05;;;;;;;13.47;4.67;;;;;;;37.12;42.96;100679.47;6184433;23;20415;-71
2022/04/15 03:32:32;;;;;;;12.80;4.00;;;;;;;37.23;43.20;100672.72;6157948;23;20424;-71
2022/04/15 03:34:58;;;;;;;16.83;4.47;;;;;;;37.24;43.16;100685.13;6158156;23;20791;-71
2022/04/15 03:37:25;;;;;;;17.10;6.07;;;;;;;37.36;43.33;100684.63;6158216;23;20392;-71
2022/04/15 03:39:52;;;;;;;9.33;3.90;;;;;;;37.29;43.69;100681.50;6184036;23;20475;-73
2022/04/15 03:42:18;;;;;;;20.57;4.30;;;;;;;37.27;43.18;100675.63;6158206;23;20393;-73
2022/04/15 03:44:45;;;;;;;8.30;3.77;;;;;;;37.28;43.28;100691.53;6158011;23;20391;-73
2022/04/15 03:47:11;;;;;;;11.90;4.90;;;;;;;37.00;44.49;100684.59;6184275;23;20456;-71
2022/04/15 03:49:37;;;;;;;11.97;3.63;;;;;;;36.94;44.21;100702.81;6133558;23;20435;-71
2022/04/15 03:52:03;;;;;;;13.97;5.70;;;;;;;36.95;43.97;100701.72;6157941;23;20395;-73
2022/04/15 03:54:29;;;;;;;10.90;3.40;;;;;;;36.99;44.14;100705.41;6157864;23;20421;-71
2022/04/15 03:56:55;;;;;;;10.17;3.90;;;;;;;37.16;43.40;100709.41;6157877;23;20384;-70
2022/04/15 03:59:21;;;;;;;10.67;3.70;;;;;;;37.35;42.83;100710.06;6158080;23;20384;-71
2022/04/15 04:01:47;;;;;;;10.30;3.90;;;;;;;37.19;43.15;100709.56;6157844;23;20404;-71
2022/04/15 04:04:13;;;;;;;14.47;3.70;;;;;;;37.29;42.95;100720.19;6133269;23;20388;-73
2022/04/15 04:06:39;;;;;;;14.33;4.07;;;;;;;37.17;43.58;100725.31;6157710;23;20396;-71
2022/04/15 04:09:06;;;;;;;15.33;4.10;;;;;;;36.97;44.05;100726.56;6158138;23;20440;-71
2022/04/15 04:11:32;;;;;;;13.63;3.90;;;;;;;37.11;44.04;100726.53;6157849;23;20376;-73
2022/04/15 04:13:58;;;;;;;27.67;5.50;;;;;;;37.16;43.46;100722.94;6157361;23;20455;-74
2022/04/15 04:16:24;;;;;;;17.93;3.57;;;;;;;37.20;43.20;100716.63;6133400;23;20431;-73
2022/04/15 04:18:50;;;;;;;14.97;5.50;;;;;;;37.36;43.16;100722.50;6133336;23;20403;-70
2022/04/15 04:21:17;;;;;;;9.00;4.20;;;;;;;37.40;43.12;100723.50;6157857;23;20376;-70
2022/04/15 04:23:44;;;;;;;14.13;4.73;;;;;;;37.33;42.47;100725.78;6157579;23;20422;-72
2022/04/15 04:26:10;;;;;;;7.97;3.30;;;;;;;37.11;43.18;100724.63;6157795;23;20384;-72
2022/04/15 04:28:36;;;;;;;6.50;3.90;;;;;;;37.05;43.41;100731.25;6184052;23;20386;-73
2022/04/15 04:31:02;;;;;;;13.73;4.17;;;;;;;37.29;43.11;100716.69;6157523;23;20427;-71
2022/04/15 04:33:28;;;;;;;13.27;4.20;;;;;;;37.43;43.43;100733.69;6157734;23;20384;-73
2022/04/15 04:35:56;;;;;;;14.40;5.40;;;;;;;37.49;43.15;100731.66;6157576;23;20392;-71
2022/04/15 04:38:22;;;;;;;11.00;3.90;;;;;;;37.51;43.06;100738.41;6157640;23;20454;-73
2022/04/15 04:40:48;;;;;;;9.93;5.03;;;;;;;37.48;43.58;100738.19;6157484;23;20391;-73
2022/04/15 04:43:15;;;;;;;14.97;4.43;;;;;;;37.40;43.24;100744.34;6157696;23;20380;-71
2022/04/15 04:45:41;;;;;;;15.23;5.00;;;;;;;36.93;44.43;100752.59;6133273;23;20490;-72
2022/04/15 04:48:08;;;;;;;10.03;5.53;;;;;;;37.04;44.23;100759.41;6157405;23;20784;-73
2022/04/15 04:50:35;;;;;;;12.37;6.03;;;;;;;36.88;44.84;100763.50;6158090;23;20911;-73
2022/04/15 04:53:01;;;;;;;13.60;5.40;;;;;;;36.90;44.86;100758.63;6159646;23;20804;-73
2022/04/15 04:55:27;;;;;;;10.90;6.40;;;;;;;36.93;45.08;100752.59;6159580;23;20463;-71
2022/04/15 04:57:53;;;;;;;13.77;6.00;;;;;;;36.58;45.70;100762.16;6159645;23;20388;-70
2022/04/15 05:00:19;;;;;;;11.90;6.20;;;;;;;36.50;45.95;100766.38;6159603;23;20380;-73
2022/04/15 05:02:45;;;;;;;10.00;6.53;;;;;;;36.58;46.29;100770.28;6160084;23;20396;-71
2022/04/15 05:05:12;;;;;;;12.50;5.93;;;;;;;36.53;45.80;100773.09;6159579;23;20438;-71
2022/04/15 05:07:38;;;;;;;12.40;6.67;;;;;;;36.41;46.06;100773.56;6159590;23;20388;-70
2022/04/15 05:10:05;;;;;;;14.37;7.77;;;;;;;36.30;46.44;100777.50;6134993;23;20427;-71
2022/04/15 05:12:32;;;;;;;15.30;9.00;;;;;;;36.33;46.16;100785.00;6135052;23;20380;-73
2022/04/15 05:14:58;;;;;;;17.57;10.00;;;;;;;36.47;46.42;100788.59;6134728;23;20444;-73
2022/04/15 05:17:24;;;;;;;14.07;8.97;;;;;;;36.39;46.63;100794.66;6134919;23;20376;-73
2022/04/15 05:19:50;;;;;;;14.13;8.67;;;;;;;36.29;46.70;100803.72;6159624;23;20380;-71
2022/04/15 05:22:16;;;;;;;12.57;7.80;;;;;;;36.41;46.28;100814.09;6159433;23;20384;-71
2022/04/15 05:24:42;;;;;;;14.30;7.53;;;;;;;36.49;46.19;100813.41;6134873;23;20418;-73
2022/04/15 05:27:09;;;;;;;16.67;8.50;;;;;;;36.55;46.10;100814.13;6185779;23;20410;-71
2022/04/15 05:29:35;;;;;;;17.10;10.93;;;;;;;36.19;46.77;100822.00;6158679;23;20427;-70
2022/04/15 05:32:03;;;;;;;18.77;12.10;;;;;;;36.03;47.33;100821.41;6159267;23;20472;-71
2022/04/15 05:34:29;;;;;;;15.87;12.03;;;;;;;36.10;46.96;100827.28;6159200;23;20384;-73
2022/04/15 05:36:55;;;;;;;22.90;12.17;;;;;;;35.99;47.35;100831.22;6159020;23;20442;-71
2022/04/15 05:39:21;;;;;;;18.20;12.47;;;;;;;35.77;47.49;100832.56;6185268;23;20402;-71
2022/04/15 05:41:47;;;;;;;21.80;12.00;;;;;;;35.84;47.59;100834.91;6158790;23;20850;-70
2022/04/15 05:44:14;;;;;;;21.70;13.57;;;;;;;35.72;47.55;100839.94;6159128;23;20471;-71
2022/04/15 05:46:42;;;;;;;19.63;15.23;;;;;;;35.91;47.38;100839.94;6159371;23;20475;-72
2022/04/15 05:49:13;;;;;;;18.07;12.57;;;;;;;35.83;47.26;100835.19;6158943;23;21199;-71
2022/04/15 05:51:41;;;;;;;25.23;12.80;;;;;;;35.65;47.99;100850.28;6159129;23;20384;-72
2022/04/15 05:54:07;;;;;;;22.40;11.77;;;;;;;35.64;47.94;100840.59;6159028;23;20727;-73
2022/04/15 05:56:33;;;;;;;23.20;11.97;;;;;;;35.31;48.68;100853.13;6158872;23;20419;-72
2022/04/15 05:58:59;;;;;;;22.70;13.53;;;;;;;35.27;48.93;100851.00;6158993;23;20792;-72
2022/04/15 06:01:25;;;;;;;21.37;12.63;;;;;;;35.38;48.45;100859.78;6158824;23;20915;-75
2022/04/15 06:03:51;;;;;;;25.50;13.87;;;;;;;35.28;48.63;100866.06;6156718;23;20934;-74
2022/04/15 06:06:18;;;;;;;18.20;14.33;;;;;;;35.48;48.34;100872.34;6156969;23;20392;-78
2022/04/15 06:08:44;;;;;;;23.77;13.77;;;;;;;35.45;48.26;100879.13;6158173;23;20439;-74
2022/04/15 06:11:10;;;;;;;21.50;12.27;;;;;;;35.51;48.39;100872.59;6157885;23;20396;-72
2022/04/15 06:13:37;;;;;;;22.73;13.53;;;;;;;35.64;48.23;100881.06;6182885;23;20369;-72
2022/04/15 06:16:08;;;;;;;25.70;15.83;;;;;;;35.76;47.60;100886.84;6158265;23;20962;-72
2022/04/15 06:18:36;;;;;;;31.87;17.40;;;;;;;35.61;48.37;100882.47;6157608;23;20384;-75
2022/04/15 06:21:03;;;;;;;27.07;14.63;;;;;;;35.57;48.70;100888.72;6155863;23;20766;-72
2022/04/15 06:23:29;;;;;;;24.87;16.87;;;;;;;35.84;47.41;100886.19;6156787;23;20387;-74
2022/04/15 06:25:55;;;;;;;27.77;19.27;;;;;;;35.55;48.24;100899.00;6156984;23;20399;-71
2022/04/15 06:28:21;;;;;;;25.80;16.80;;;;;;;35.49;48.20;100901.75;6157508;23;20781;-71
2022/04/15 06:30:49;;;;;;;24.50;16.70;;;;;;;34.99;49.69;100908.47;6157485;23;20424;-72
2022/04/15 06:33:16;;;;;;;23.37;15.90;;;;;;;35.22;49.26;100909.56;6134208;23;20392;-75
2022/04/15 06:35:43;;;;;;;21.10;13.50;;;;;;;35.55;48.35;100907.09;6134304;23;20526;-71
2022/04/15 06:38:09;;;;;;;24.27;14.57;;;;;;;36.02;46.95;100909.72;6158508;23;20387;-73
2022/04/15 06:40:38;;;;;;;20.87;14.90;;;;;;;36.29;46.17;100910.97;6185134;23;20442;-72
2022/04/15 06:43:05;;;;;;;26.90;15.73;;;;;;;36.33;46.06;100906.56;6182892;23;20855;-74
2022/04/15 06:45:31;;;;;;;27.33;15.37;;;;;;;36.27;46.13;100915.84;6156465;23;20396;-75
2022/04/15 06:47:57;;;;;;;29.17;17.00;;;;;;;36.40;46.34;100923.25;6182688;23;20496;-73
2022/04/15 06:50:24;;;;;;;30.00;16.83;;;;;;;36.37;46.44;100926.50;6156308;23;20435;-75
2022/04/15 06:52:50;;;;;;;25.20;18.00;;;;;;;36.47;45.84;100923.69;6156419;23;20388;-74
2022/04/15 06:55:17;;;;;;;25.20;17.80;;;;;;;36.46;45.92;100926.66;6156395;23;20865;-74
2022/04/15 06:57:43;;;;;;;31.43;19.27;;;;;;;36.39;45.77;100929.72;6157269;23;20942;-74
2022/04/15 07:00:13;;;;;;;28.53;21.57;;;;;;;36.37;46.14;100934.59;6157991;23;20388;-73
2022/04/15 07:02:42;;;;;;;22.90;20.23;;;;;;;36.56;45.74;100937.31;6184530;23;20367;-75
2022/04/15 07:05:10;;;;;;;29.40;21.53;;;;;;;36.44;46.46;100940.47;6158326;23;20380;-72
2022/04/15 07:07:40;;;;;;;33.17;22.27;;;;;;;36.52;46.05;100939.00;6157460;23;20408;-73
2022/04/15 07:10:08;;;;;;;23.63;18.83;;;;;;;36.32;46.03;100934.69;6183446;23;20415;-74
2022/04/15 07:12:35;;;;;;;38.93;19.13;;;;;;;36.51;45.76;100931.97;6156741;23;20384;-73
2022/04/15 07:15:01;;;;;;;25.10;19.87;;;;;;;36.66;45.72;100929.06;6156704;23;20448;-77
2022/04/15 07:17:27;;;;;;;34.50;20.50;;;;;;;36.83;45.18;100933.88;6132667;23;20475;-78
2022/04/15 07:19:53;;;;;;;39.07;22.00;;;;;;;36.95;45.19;100936.16;6183580;23;20427;-77
2022/04/15 07:22:20;;;;;;;28.60;20.27;;;;;;;37.06;44.54;100935.66;6157048;23;20712;-76
2022/04/15 07:24:48;;;;;;;32.03;20.70;;;;;;;36.93;45.20;100949.97;6156822;23;20384;-78
2022/04/15 07:27:14;;;;;;;23.30;16.20;;;;;;;36.86;44.94;100952.22;6132441;23;20381;-77
2022/04/15 07:29:41;;;;;;;24.20;17.80;;;;;;;36.64;45.70;100960.94;6132212;23;20448;-76
2022/04/15 07:32:08;;;;;;;25.03;18.47;;;;;;;36.89;45.47;100961.66;6157432;23;20388;-76
2022/04/15 07:34:35;;;;;;;29.03;20.30;;;;;;;36.88;45.26;100968.97;6157878;23;20412;-79
2022/04/15 07:37:03;;;;;;;29.93;19.17;;;;;;;36.97;45.53;100974.53;6157902;23;20395;-70
2022/04/15 07:39:33;;;;;;;27.83;19.23;;;;;;;37.03;44.94;100984.94;6156747;23;20383;-74
2022/04/15 07:41:59;;;;;;;25.93;18.10;;;;;;;37.04;45.00;100986.56;6157805;23;20384;-77
2022/04/15 07:44:26;;;;;;;29.77;19.67;;;;;;;37.15;44.49;100998.00;6157893;23;20757;-76
2022/04/15 07:46:52;;;;;;;30.83;21.40;;;;;;;37.05;44.91;100992.75;6157740;23;20411;-74
2022/04/15 07:49:25;;;;;;;24.47;18.07;;;;;;;37.07;45.12;100994.06;6157391;23;20943;-80
2022/04/15 07:51:51;;;;;;;29.60;22.23;;;;;;;37.09;44.57;100991.88;6181748;23;20411;-75
2022/04/15 07:54:17;;;;;;;25.20;17.90;;;;;;;37.27;44.73;100997.53;6182852;23;20868;-74
2022/04/15 07:56:43;;;;;;;34.73;23.07;;;;;;;37.22;45.07;100997.63;6157048;23;20388;-80
2022/04/15 07:59:09;;;;;;;34.43;23.30;;;;;;;37.24;44.76;100987.28;6156033;23;20384;-81
2022/04/15 08:01:37;;;;;;;27.70;23.00;;;;;;;37.40;44.62;100994.06;6157683;23;20423;-74
2022/04/15 08:04:03;;;;;;;30.57;22.00;;;;;;;37.11;44.91;101005.91;6157460;23;20384;-76
2022/04/15 08:06:29;;;;;;;29.80;21.60;;;;;;;37.13;45.23;101011.00;6157779;23;20479;-80
2022/04/15 08:08:56;;;;;;;32.73;22.90;;;;;;;37.13;45.40;101014.50;6157737;23;20436;-79
2022/04/15 08:11:25;;;;;;;30.27;24.83;;;;;;;37.24;44.61;101020.56;6157427;23;20412;-77
2022/04/15 08:13:52;;;;;;;41.00;26.70;;;;;;;37.33;44.93;101026.09;6156537;23;20860;-76
2022/04/15 08:16:21;;;;;;;29.27;22.63;;;;;;;37.41;44.73;101028.13;6182664;23;20444;-74
2022/04/15 08:18:49;;;;;;;42.23;27.93;;;;;;;37.31;45.12;101020.97;6157911;23;20368;-75
2022/04/15 08:21:16;;;;;;;27.20;20.53;;;;;;;37.06;45.59;101030.31;6157632;23;20486;-75
2022/04/15 08:23:43;;;;;;;30.67;23.17;;;;;;;37.00;46.04;101033.41;6184136;23;20364;-73
2022/04/15 08:26:11;;;;;;;34.47;22.50;;;;;;;37.15;45.21;101035.06;6157632;23;20403;-72
2022/04/15 08:28:37;;;;;;;21.47;19.17;;;;;;;37.34;44.25;101028.53;6132865;23;20384;-73
2022/04/15 08:31:03;;;;;;;36.50;19.80;;;;;;;37.42;44.68;101037.06;6157126;23;20463;-75
2022/04/15 08:33:30;;;;;;;41.53;21.67;;;;;;;37.16;45.60;101034.75;6157651;23;20391;-77
2022/04/15 08:35:56;;;;;;;27.97;19.73;;;;;;;36.78;46.49;101036.72;6109322;23;20752;-77
2022/04/15 08:38:22;;;;;;;31.57;23.10;;;;;;;36.94;46.17;101042.69;6183986;23;20702;-77
2022/04/15 08:40:50;;;;;;;27.23;20.53;;;;;;;37.06;45.99;101041.13;6184354;23;20361;-75
2022/04/15 08:43:16;;;;;;;41.90;23.73;;;;;;;37.31;44.89;101041.81;6185306;23;20352;-76
2022/04/15 08:45:45;;;;;;;34.17;23.80;;;;;;;37.29;45.45;101033.19;6133084;23;20384;-77
2022/04/15 08:48:11;;;;;;;29.73;22.10;;;;;;;37.36;45.04;101036.34;6157586;23;20384;-76
2022/04/15 08:50:38;;;;;;;26.50;20.60;;;;;;;37.36;45.10;101047.16;6157536;23;20423;-73
2022/04/15 08:53:04;;;;;;;35.47;20.20;;;;;;;37.38;45.04;101051.19;6157554;23;20383;-72
2022/04/15 08:55:31;;;;;;;30.07;18.90;;;;;;;37.49;45.04;101051.78;6133107;23;20451;-71
2022/04/15 08:57:58;;;;;;;18.53;11.63;;;;;;;37.58;44.16;101044.59;6157709;23;20376;-71
2022/04/15 09:00:25;;;;;;;18.80;12.97;;;;;;;37.63;44.14;101049.13;6157704;23;20345;-72
2022/04/15 09:02:53;;;;;;;23.03;14.30;;;;;;;37.71;43.68;101047.63;6133261;23;20376;-73
2022/04/15 09:05:24;;;;;;;15.10;13.87;;;;;;;37.59;44.29;101057.03;6133056;23;20513;-73
2022/04/15 09:08:04;;;;;;;19.20;12.80;;;;;;;37.69;43.84;101047.91;6184002;23;20352;-74
2022/04/15 09:10:31;;;;;;;22.20;14.27;;;;;;;37.86;44.13;101055.47;6157305;23;20760;-74
2022/04/15 09:12:57;;;;;;;16.63;13.37;;;;;;;37.85;43.94;101056.56;6157571;23;20386;-73
2022/04/15 09:15:23;;;;;;;20.73;15.57;;;;;;;37.76;43.91;101048.31;6157102;23;21055;-73
2022/04/15 09:17:51;;;;;;;17.97;10.87;;;;;;;37.87;43.68;101060.56;6157060;23;20423;-72
2022/04/15 09:20:18;;;;;;;15.50;9.23;;;;;;;38.07;43.00;101061.28;6184030;23;20371;-71
2022/04/15 09:22:44;;;;;;;13.50;9.57;;;;;;;38.19;42.67;101064.28;6157258;23;20400;-75
2022/04/15 09:25:11;;;;;;;17.20;10.00;;;;;;;38.29;42.79;101063.28;6157388;23;20833;-76
2022/04/15 09:27:41;;;;;;;17.83;11.27;;;;;;;38.45;42.76;101072.69;6157199;23;20396;-73
2022/04/15 09:30:07;;;;;;;18.87;10.87;;;;;;;38.28;42.95;101076.03;6157177;23;20529;-73
2022/04/15 09:32:34;;;;;;;20.20;8.90;;;;;;;38.42;42.85;101081.41;6157118;23;20482;-73
2022/04/15 09:35:08;;;;;;;18.47;11.10;;;;;;;38.44;42.87;101081.94;6157258;23;20386;-73
2022/04/15 09:37:44;;;;;;;13.53;7.43;;;;;;;38.49;42.54;101089.94;6158669;23;20384;-76
2022/04/15 09:40:20;;;;;;;13.47;6.53;;;;;;;38.58;42.02;101088.09;6159229;23;20732;-75
2022/04/15 09:42:51;;;;;;;11.30;5.70;;;;;;;38.59;42.06;101084.28;6135091;23;20867;-74
2022/04/15 09:45:25;;;;;;;11.13;5.90;;;;;;;38.55;42.07;101085.19;6185651;23;20367;-74
2022/04/15 09:47:57;;;;;;;19.83;7.70;;;;;;;38.61;42.16;101087.50;6159153;23;20404;-73
2022/04/15 09:50:35;;;;;;;9.57;4.87;;;;;;;38.59;41.72;101083.50;6159625;23;20415;-72
2022/04/15 09:53:18;;;;;;;13.70;8.10;;;;;;;38.64;41.86;101091.50;6135055;23;20852;-74
2022/04/15 09:55:52;;;;;;;11.87;7.40;;;;;;;38.69;42.21;101097.63;6185513;23;20434;-75
2022/04/15 09:58:28;;;;;;;12.70;5.57;;;;;;;38.77;41.52;101101.53;6159044;23;20467;-75
2022/04/15 10:00:56;;;;;;;16.07;6.30;;;;;;;38.76;41.36;101101.84;6158894;23;20383;-74
2022/04/15 10:03:24;;;;;;;14.00;6.03;;;;;;;38.84;41.41;101107.34;6158953;23;20902;-75
2022/04/15 10:05:54;;;;;;;18.00;6.07;;;;;;;38.87;40.98;101097.81;6185254;23;20400;-75
2022/04/15 10:08:27;;;;;;;10.27;5.57;;;;;;;38.90;41.36;101100.69;6159037;23;20384;-74
2022/04/15 10:10:54;;;;;;;13.23;7.63;;;;;;;38.92;41.36;101097.69;6134365;23;20477;-76
2022/04/15 10:13:26;;;;;;;9.80;5.90;;;;;;;39.01;41.06;101095.81;6185190;23;20357;-75
2022/04/15 10:15:53;;;;;;;9.43;6.30;;;;;;;38.75;41.55;101087.50;6184770;23;20459;-75
2022/04/15 10:18:22;;;;;;;10.70;5.67;;;;;;;38.74;41.54;101087.81;6158904;23;20384;-76
2022/04/15 10:20:48;;;;;;;12.30;5.17;;;;;;;38.76;41.87;101082.88;6134055;23;20372;-76
2022/04/15 10:23:16;;;;;;;14.30;6.00;;;;;;;38.80;41.66;101084.66;6158889;23;20459;-74
2022/04/15 10:25:48;;;;;;;16.27;8.10;;;;;;;38.78;41.75;101091.50;6159228;23;20360;-75
2022/04/15 10:28:17;;;;;;;8.00;5.60;;;;;;;38.87;41.71;101084.25;6158679;23;20384;-75
2022/04/15 10:30:51;;;;;;;25.40;7.33;;;;;;;38.92;41.74;101081.41;6158714;23;20424;-76
2022/04/15 10:33:31;;;;;;;16.90;8.97;;;;;;;38.88;41.65;101083.13;6158818;23;20853;-74
2022/04/15 10:35:59;;;;;;;10.73;7.30;;;;;;;38.91;41.69;101077.88;6157774;23;20392;-74
2022/04/15 10:38:25;;;;;;;11.17;7.20;;;;;;;38.94;41.51;101080.00;6157592;23;20384;-74
2022/04/15 10:40:51;;;;;;;10.43;6.50;;;;;;;38.95;41.40;101069.94;6158654;23;20390;-74
2022/04/15 10:43:23;;;;;;;11.20;7.17;;;;;;;38.94;41.87;101077.28;6158352;23;20849;-74
2022/04/15 10:45:54;;;;;;;12.57;5.60;;;;;;;38.86;41.59;101078.03;6158737;23;20384;-75
2022/04/15 10:48:31;;;;;;;13.23;6.67;;;;;;;38.89;41.48;101074.69;6158405;23;20393;-75
2022/04/15 10:51:12;;;;;;;14.47;7.00;;;;;;;39.00;41.52;101069.81;6158377;23;20427;-75
2022/04/15 10:53:38;;;;;;;12.43;5.93;;;;;;;39.04;41.43;101070.81;6157734;23;20384;-74
2022/04/15 10:56:09;;;;;;;10.70;5.10;;;;;;;39.04;41.52;101081.66;6184390;23;20365;-74
2022/04/15 11:02:02;;;;;;;14.53;6.23;;;;;;;39.09;41.77;101075.28;6184617;23;20867;-75
2022/04/15 11:04:35;;;;;;;11.70;4.83;;;;;;;39.13;41.53;101070.84;6184839;23;20407;-75
2022/04/15 11:07:15;;;;;;;13.00;5.13;;;;;;;39.12;41.62;101063.84;6157677;23;20463;-75
2022/04/15 11:09:42;;;;;;;14.03;5.30;;;;;;;39.25;41.16;101062.19;6132867;23;20824;-73
2022/04/15 11:12:09;;;;;;;14.93;6.70;;;;;;;39.24;41.49;101058.66;6157017;23;20376;-73
2022/04/15 11:14:35;;;;;;;10.33;4.77;;;;;;;39.25;40.86;101062.97;6156494;23;20419;-74
2022/04/15 11:17:02;;;;;;;14.80;5.57;;;;;;;39.34;40.69;101071.16;6156912;23;20954;-73
2022/04/15 11:19:29;;;;;;;9.00;5.00;;;;;;;39.40;40.44;101059.06;6157137;23;20389;-74